首页
METAR-TAF:

METAR-TAF

机场 :

伊爾庫茨克國際機場

伊爾庫茨克, 俄罗斯

纬度: 52-16N, 经度: 104-19E, 海拔: 513米

当前天气观测

该预报发布于29分钟前的15:00 UTC
风速4节,风向南转南东
温度 15°C
湿度 82%
气压 1015 hPa
能见度10公里或以上
1500米以下无云,无积雨云

METAR: UIII 161500Z 15002MPS CAVOK 15/12 Q1015 R30/60D NOSIG RMK QFE716/0955

时间: 23:29 (15:29 UTC)

预报

该预报发布于1小时和29分钟前的14:00 UTC
预报有效从16日的 15点(UTC)到 17日的 15点(UTC)
风速6节,风向西转西北
能见度10公里或以上
散云层高于2000英尺, 积雨云.
短暂存在
从 16日的 18点(UTC)到 17日的 03点(UTC)
能見度: 0300
层高于100英尺
成为
从 17日的 04点(UTC)到 17日的 06点(UTC)

TAF: UIII 161400Z 1615/1715 30003MPS 9999 SCT020CB TEMPO 1618/1703 0300 FG VV001 BECMG 1704/1706 NSC

超过4000个机场的气象观测和天气预报(METAR&TAF报告)。

可查询的气象台以黄色和红色小点在地图上表示。

将鼠标移到小点上方,可查看气象台名称。

然后点击查看天气观测和预报。

如需切换地图:点击带黑十字的绿色按钮放大地图;点击带横线的绿色按钮缩小地图;或者点击绿色箭头查看邻近地区的地图。


METAR-TAF: